createdAt,value
2018-01-11T00:00:46.945Z,85.05
2018-01-11T00:01:53.769Z,85.05
2018-01-11T00:03:00.600Z,85.06
2018-01-11T00:04:07.415Z,85.03
2018-01-11T00:05:14.221Z,85.04
2018-01-11T00:06:21.057Z,85.06
2018-01-11T00:07:27.854Z,85.08
2018-01-11T00:08:34.633Z,85.11
2018-01-11T00:09:41.475Z,85.15
2018-01-11T00:10:48.240Z,85.14
2018-01-11T00:11:55.044Z,85.16
2018-01-11T00:13:01.889Z,85.15
2018-01-11T00:14:08.615Z,85.15
2018-01-11T00:15:15.435Z,85.21
2018-01-11T00:16:22.345Z,85.23
2018-01-11T00:17:29.108Z,85.22
2018-01-11T00:18:35.908Z,85.23
2018-01-11T00:19:42.719Z,85.25
2018-01-11T00:20:49.452Z,85.21
2018-01-11T00:21:56.352Z,85.24
2018-01-11T00:23:03.140Z,85.23
2018-01-11T00:24:09.868Z,85.23
2018-01-11T00:25:16.647Z,85.24
2018-01-11T00:26:23.412Z,85.24
2018-01-11T00:27:30.200Z,85.28
2018-01-11T00:28:36.962Z,85.29
2018-01-11T00:29:43.717Z,85.30
2018-01-11T00:30:50.456Z,85.31
2018-01-11T00:31:57.256Z,85.32
2018-01-11T00:33:04.052Z,85.32
2018-01-11T00:34:10.804Z,85.33
2018-01-11T00:35:17.536Z,85.33
2018-01-11T00:36:24.304Z,85.33
2018-01-11T00:37:31.046Z,85.32
2018-01-11T00:38:37.780Z,85.29
2018-01-11T00:39:44.531Z,85.35
2018-01-11T00:40:51.340Z,85.33
2018-01-11T00:41:58.093Z,85.33
2018-01-11T00:43:04.893Z,85.33
2018-01-11T00:44:11.744Z,85.31
2018-01-11T00:45:18.504Z,85.33
2018-01-11T00:46:25.623Z,85.33
2018-01-11T00:47:32.432Z,85.34
2018-01-11T00:48:39.163Z,85.34
2018-01-11T00:49:45.937Z,85.32
2018-01-11T00:50:52.696Z,85.33
2018-01-11T00:51:59.448Z,85.32
2018-01-11T00:53:06.198Z,85.37
2018-01-11T00:54:12.952Z,85.37
2018-01-11T00:55:19.698Z,85.35
2018-01-11T00:56:26.460Z,85.34
2018-01-11T00:57:33.208Z,85.39
2018-01-11T00:58:39.992Z,85.37
2018-01-11T00:59:46.749Z,85.37
2018-01-11T01:00:53.516Z,85.39
2018-01-11T01:02:00.289Z,85.40
2018-01-11T01:03:07.083Z,85.39
2018-01-11T01:04:13.868Z,85.42
2018-01-11T01:05:20.645Z,85.42
2018-01-11T01:06:27.396Z,85.43
2018-01-11T01:07:34.209Z,85.44
2018-01-11T01:08:40.957Z,85.48
2018-01-11T01:09:48.081Z,85.44
2018-01-11T01:10:54.812Z,85.49
2018-01-11T01:12:01.584Z,85.51
2018-01-11T01:13:08.428Z,85.50
2018-01-11T01:14:15.188Z,85.48
2018-01-11T01:15:21.960Z,85.51
2018-01-11T01:16:28.692Z,85.53
2018-01-11T01:17:35.537Z,85.57
2018-01-11T01:18:42.406Z,85.56
2018-01-11T01:19:49.256Z,85.57
2018-01-11T01:20:55.988Z,85.60
2018-01-11T01:22:02.793Z,85.58
2018-01-11T01:23:09.567Z,85.59
2018-01-11T01:24:16.396Z,85.58
2018-01-11T01:25:23.166Z,85.60
2018-01-11T01:26:29.933Z,85.58
2018-01-11T01:27:36.706Z,85.60
2018-01-11T01:28:43.480Z,85.60
2018-01-11T01:29:50.229Z,85.60
2018-01-11T01:30:57.032Z,85.61
2018-01-11T01:32:03.788Z,85.62
2018-01-11T01:33:10.553Z,85.65
2018-01-11T01:34:17.328Z,85.65
2018-01-11T01:35:24.101Z,85.66
2018-01-11T01:36:30.875Z,85.69
2018-01-11T01:37:37.654Z,85.68
2018-01-11T01:38:44.409Z,85.71
2018-01-11T01:39:51.186Z,85.71
2018-01-11T01:40:57.946Z,85.68
2018-01-11T01:42:04.716Z,85.70
2018-01-11T01:43:11.468Z,85.73
2018-01-11T01:44:18.220Z,85.74
2018-01-11T01:45:25.000Z,85.75
2018-01-11T01:46:31.773Z,85.76
2018-01-11T01:47:38.528Z,85.75
2018-01-11T01:48:45.295Z,85.76
2018-01-11T01:49:52.024Z,85.77
2018-01-11T01:50:58.830Z,85.78
2018-01-11T01:52:05.598Z,85.77
2018-01-11T01:53:12.357Z,85.79
2018-01-11T01:54:19.105Z,85.79
2018-01-11T01:55:25.898Z,85.80
2018-01-11T01:56:32.660Z,85.82
2018-01-11T01:57:39.452Z,85.85
2018-01-11T01:58:46.190Z,85.85
2018-01-11T01:59:52.968Z,85.85
2018-01-11T02:00:59.784Z,85.88
2018-01-11T02:02:06.549Z,85.86
2018-01-11T02:03:13.404Z,85.84
2018-01-11T02:04:20.156Z,85.88
2018-01-11T02:05:26.904Z,85.88
2018-01-11T02:06:33.661Z,85.85
2018-01-11T02:07:40.488Z,85.88
2018-01-11T02:08:47.234Z,85.93
2018-01-11T02:09:54.016Z,85.93
2018-01-11T02:11:00.781Z,85.91
2018-01-11T02:12:07.577Z,85.93
2018-01-11T02:13:14.384Z,85.94
2018-01-11T02:14:21.124Z,85.92
2018-01-11T02:15:27.951Z,85.92
2018-01-11T02:16:34.720Z,85.93
2018-01-11T02:17:41.555Z,85.96
2018-01-11T02:18:48.388Z,85.92
2018-01-11T02:19:55.152Z,85.94
2018-01-11T02:21:01.892Z,85.95
2018-01-11T02:22:08.696Z,85.93
2018-01-11T02:23:15.492Z,85.98
2018-01-11T02:24:22.237Z,85.98
2018-01-11T02:25:29.004Z,86.00
2018-01-11T02:26:35.818Z,86.01
2018-01-11T02:27:42.667Z,86.00
2018-01-11T02:28:50.740Z,86.00
2018-01-11T02:29:56.573Z,85.98
2018-01-11T02:31:03.386Z,86.02
2018-01-11T02:32:10.164Z,86.03
2018-01-11T02:33:16.929Z,86.06
2018-01-11T02:34:23.672Z,86.06
2018-01-11T02:35:30.430Z,86.05
2018-01-11T02:36:37.216Z,86.07
2018-01-11T02:37:43.976Z,86.06
2018-01-11T02:38:50.769Z,86.08
2018-01-11T02:39:57.520Z,86.06
2018-01-11T02:41:04.339Z,86.11
2018-01-11T02:42:11.137Z,86.10
2018-01-11T02:43:17.935Z,86.08
2018-01-11T02:44:24.709Z,86.09
2018-01-11T02:45:31.474Z,86.07
2018-01-11T02:46:38.321Z,86.09
2018-01-11T02:47:45.196Z,86.12
2018-01-11T02:48:51.964Z,86.12
2018-01-11T02:49:58.722Z,86.13
2018-01-11T02:51:05.453Z,86.12
2018-01-11T02:52:12.268Z,86.14
2018-01-11T02:53:19.025Z,86.15
2018-01-11T02:54:25.792Z,86.17
2018-01-11T02:55:32.523Z,86.18
2018-01-11T02:56:39.333Z,86.19
2018-01-11T02:57:46.124Z,86.19
2018-01-11T02:58:53.166Z,86.23
2018-01-11T02:59:59.952Z,86.24
2018-01-11T03:01:06.823Z,86.23
2018-01-11T03:02:13.612Z,86.23
2018-01-11T03:03:20.363Z,86.24
2018-01-11T03:04:27.153Z,86.26
2018-01-11T03:05:33.901Z,86.24
2018-01-11T03:06:40.677Z,86.23
2018-01-11T03:07:47.472Z,86.28
2018-01-11T03:08:54.241Z,86.27
2018-01-11T03:10:01.104Z,86.30
2018-01-11T03:11:07.896Z,86.29
2018-01-11T03:12:14.660Z,86.31
2018-01-11T03:13:21.416Z,86.29
2018-01-11T03:14:28.460Z,86.30
2018-01-11T03:15:35.200Z,86.30
2018-01-11T03:16:42.004Z,86.32
2018-01-11T03:17:49.055Z,86.33
2018-01-11T03:18:55.808Z,86.33
2018-01-11T03:20:02.591Z,86.33
2018-01-11T03:21:09.374Z,86.37
2018-01-11T03:22:16.229Z,86.34
2018-01-11T03:23:22.999Z,86.34
2018-01-11T03:24:29.801Z,86.36
2018-01-11T03:25:36.644Z,86.39
2018-01-11T03:26:43.401Z,86.39
2018-01-11T03:27:50.228Z,86.40
2018-01-11T03:28:57.065Z,86.40
2018-01-11T03:30:03.811Z,86.40
2018-01-11T03:31:10.594Z,86.41
2018-01-11T03:32:17.505Z,86.45
2018-01-11T03:33:24.255Z,86.45
2018-01-11T03:34:31.022Z,86.45
2018-01-11T03:35:37.833Z,86.46
2018-01-11T03:36:44.563Z,86.47
2018-01-11T03:37:51.351Z,86.50
2018-01-11T03:38:58.121Z,86.50
2018-01-11T03:40:04.884Z,86.50
2018-01-11T03:41:11.681Z,86.50
2018-01-11T03:42:18.449Z,86.50
2018-01-11T03:43:25.245Z,86.51
2018-01-11T03:44:32.104Z,86.51
2018-01-11T03:45:38.844Z,86.52
2018-01-11T03:46:45.619Z,86.53
2018-01-11T03:47:52.431Z,86.56
2018-01-11T03:48:59.215Z,86.56
2018-01-11T03:50:05.970Z,86.55
2018-01-11T03:51:12.713Z,86.54
2018-01-11T03:52:19.501Z,86.54
2018-01-11T03:53:26.272Z,86.57
2018-01-11T03:54:33.045Z,86.58
2018-01-11T03:55:39.834Z,86.62
2018-01-11T03:56:46.704Z,86.60
2018-01-11T03:57:53.573Z,86.64
2018-01-11T03:59:00.501Z,86.64
2018-01-11T04:00:07.284Z,86.66
2018-01-11T04:01:14.077Z,86.66
2018-01-11T04:02:20.958Z,86.67
2018-01-11T04:03:27.729Z,86.63
2018-01-11T04:04:34.485Z,86.63
2018-01-11T04:05:41.256Z,86.66
2018-01-11T04:06:48.041Z,86.67
2018-01-11T04:07:54.850Z,86.65
2018-01-11T04:09:01.610Z,86.65
2018-01-11T04:10:08.599Z,86.65
2018-01-11T04:11:15.353Z,86.65
2018-01-11T04:12:22.148Z,86.66
2018-01-11T04:13:28.920Z,86.69
2018-01-11T04:14:35.680Z,86.70
2018-01-11T04:15:42.479Z,86.68
2018-01-11T04:16:49.211Z,86.72
2018-01-11T04:17:56.044Z,86.72
2018-01-11T04:19:02.816Z,86.74
2018-01-11T04:20:09.588Z,86.72
2018-01-11T04:21:16.752Z,86.71
2018-01-11T04:22:23.721Z,86.73
2018-01-11T04:23:30.497Z,86.74
2018-01-11T04:24:37.287Z,86.76
2018-01-11T04:25:44.029Z,86.75
2018-01-11T04:26:50.817Z,86.79
2018-01-11T04:27:57.593Z,86.83
2018-01-11T04:29:04.482Z,86.80
2018-01-11T04:30:11.268Z,86.82
2018-01-11T04:31:18.044Z,86.81
2018-01-11T04:32:24.964Z,86.83
2018-01-11T04:33:31.761Z,86.81
2018-01-11T04:34:38.579Z,86.85
2018-01-11T04:35:45.365Z,86.84
2018-01-11T04:36:52.161Z,86.86
2018-01-11T04:37:58.965Z,86.87
2018-01-11T04:39:05.813Z,86.87
2018-01-11T04:40:12.576Z,86.90
2018-01-11T04:41:19.348Z,86.88
2018-01-11T04:42:26.228Z,86.92
2018-01-11T04:43:33.000Z,86.88
2018-01-11T04:44:39.786Z,86.95
2018-01-11T04:45:46.631Z,86.96
2018-01-11T04:46:53.405Z,86.93
2018-01-11T04:48:00.184Z,86.95
2018-01-11T04:49:07.064Z,86.99
2018-01-11T04:50:14.141Z,86.98
2018-01-11T04:51:20.889Z,86.98
2018-01-11T04:52:27.764Z,87.02
2018-01-11T04:53:34.650Z,87.02
2018-01-11T04:54:41.416Z,87.00
2018-01-11T04:55:48.168Z,87.04
2018-01-11T04:56:54.940Z,87.02
2018-01-11T04:58:01.733Z,87.03
2018-01-11T04:59:08.484Z,87.03
2018-01-11T05:00:15.288Z,87.06
2018-01-11T05:01:22.141Z,87.06
2018-01-11T05:02:28.951Z,87.06
2018-01-11T05:03:35.862Z,87.09
2018-01-11T05:04:42.660Z,87.10
2018-01-11T05:05:49.478Z,87.12
2018-01-11T05:06:56.232Z,87.11
2018-01-11T05:08:03.032Z,87.13
2018-01-11T05:09:09.817Z,87.13
2018-01-11T05:10:16.585Z,87.11
2018-01-11T05:11:23.443Z,87.14
2018-01-11T05:12:30.237Z,87.12
2018-01-11T05:13:37.026Z,87.13
2018-01-11T05:14:43.777Z,87.14
2018-01-11T05:15:50.540Z,87.15
2018-01-11T05:16:57.312Z,87.17
2018-01-11T05:18:04.093Z,87.17
2018-01-11T05:19:10.849Z,87.19
2018-01-11T05:20:17.649Z,87.20
2018-01-11T05:21:24.409Z,87.20
2018-01-11T05:22:31.224Z,87.18
2018-01-11T05:23:38.078Z,87.19
2018-01-11T05:24:44.881Z,87.18
2018-01-11T05:25:51.669Z,87.19
2018-01-11T05:26:58.848Z,87.23
2018-01-11T05:28:05.685Z,87.21
2018-01-11T05:29:12.456Z,87.20
2018-01-11T05:30:19.224Z,87.21
2018-01-11T05:31:26.116Z,87.22
2018-01-11T05:32:32.896Z,87.24
2018-01-11T05:33:39.672Z,87.24
2018-01-11T05:34:46.560Z,87.26
2018-01-11T05:35:53.399Z,87.29
2018-01-11T05:37:00.174Z,87.29
2018-01-11T05:38:07.008Z,87.28
2018-01-11T05:39:13.792Z,87.29
2018-01-11T05:40:20.580Z,87.30
2018-01-11T05:41:27.440Z,87.29
2018-01-11T05:42:34.218Z,87.33
2018-01-11T05:43:41.014Z,87.32
2018-01-11T05:44:47.902Z,87.33
2018-01-11T05:45:54.669Z,87.30
2018-01-11T05:47:01.460Z,87.30
2018-01-11T05:48:08.345Z,87.35
2018-01-11T05:49:15.109Z,87.35
2018-01-11T05:50:21.893Z,87.35
2018-01-11T05:51:28.756Z,87.35
2018-01-11T05:52:35.562Z,87.38
2018-01-11T05:53:42.352Z,87.39
2018-01-11T05:54:49.200Z,87.40
2018-01-11T05:55:55.932Z,87.39
2018-01-11T05:57:02.716Z,87.38
2018-01-11T05:58:09.490Z,87.39
2018-01-11T05:59:16.285Z,87.40
2018-01-11T06:00:23.057Z,87.38
2018-01-11T06:01:29.827Z,87.39
2018-01-11T06:02:36.737Z,87.42
2018-01-11T06:03:43.521Z,87.43
2018-01-11T06:04:50.261Z,87.43
2018-01-11T06:05:57.008Z,87.43
2018-01-11T06:07:03.829Z,87.41
2018-01-11T06:08:10.617Z,87.42
2018-01-11T06:09:17.390Z,87.47
2018-01-11T06:10:24.156Z,87.45
2018-01-11T06:11:31.004Z,87.46
2018-01-11T06:12:37.791Z,87.46
2018-01-11T06:13:44.563Z,87.46
2018-01-11T06:14:51.373Z,87.49
2018-01-11T06:15:58.141Z,87.49
2018-01-11T06:17:04.997Z,87.49
2018-01-11T06:18:11.808Z,87.50
2018-01-11T06:19:18.625Z,87.51
2018-01-11T06:20:25.372Z,87.50
2018-01-11T06:21:32.145Z,87.51
2018-01-11T06:22:38.944Z,87.52
2018-01-11T06:23:45.695Z,87.52
2018-01-11T06:24:52.505Z,87.52
2018-01-11T06:25:59.426Z,87.56
2018-01-11T06:27:06.167Z,87.56
2018-01-11T06:28:12.959Z,87.57
2018-01-11T06:29:19.798Z,87.57
2018-01-11T06:30:26.528Z,87.60
2018-01-11T06:31:33.288Z,87.56
2018-01-11T06:32:40.037Z,87.57
2018-01-11T06:33:46.873Z,87.58
2018-01-11T06:34:53.636Z,87.57
2018-01-11T06:36:00.360Z,87.57
2018-01-11T06:37:07.097Z,87.55
2018-01-11T06:38:13.945Z,87.58
2018-01-11T06:39:20.676Z,87.56
2018-01-11T06:40:27.456Z,87.59
2018-01-11T06:41:34.204Z,87.57
2018-01-11T06:42:41.310Z,87.56
2018-01-11T06:43:48.167Z,87.54
2018-01-11T06:44:54.925Z,87.54
2018-01-11T06:46:01.682Z,87.54
2018-01-11T06:47:08.448Z,87.54
2018-01-11T06:48:15.237Z,87.57
2018-01-11T06:49:21.988Z,87.55
2018-01-11T06:50:28.749Z,87.55
2018-01-11T06:51:35.560Z,87.56
2018-01-11T06:52:42.357Z,87.58
2018-01-11T06:53:49.108Z,87.61
2018-01-11T06:54:55.859Z,87.58
2018-01-11T06:56:02.768Z,87.58
2018-01-11T06:57:09.541Z,87.58
2018-01-11T06:58:16.301Z,87.56
2018-01-11T06:59:23.012Z,87.55
2018-01-11T07:00:29.803Z,87.57
2018-01-11T07:01:36.605Z,87.58
2018-01-11T07:02:43.416Z,87.60
2018-01-11T07:03:50.222Z,87.57
2018-01-11T07:04:57.057Z,87.60
2018-01-11T07:06:03.789Z,87.60
2018-01-11T07:07:10.656Z,87.60
2018-01-11T07:08:17.398Z,87.60
2018-01-11T07:09:24.197Z,87.61
2018-01-11T07:10:31.050Z,87.61
2018-01-11T07:11:37.862Z,87.61
2018-01-11T07:12:44.638Z,87.62
2018-01-11T07:13:51.473Z,87.63
2018-01-11T07:14:58.311Z,87.66
2018-01-11T07:16:05.101Z,87.68
2018-01-11T07:17:11.923Z,87.67
2018-01-11T07:18:18.664Z,87.65
2018-01-11T07:19:25.457Z,87.66
2018-01-11T07:20:32.345Z,87.66
2018-01-11T07:21:39.140Z,87.70
2018-01-11T07:22:45.936Z,87.66
2018-01-11T07:23:52.768Z,87.68
2018-01-11T07:24:59.581Z,87.67
2018-01-11T07:26:06.354Z,87.69
2018-01-11T07:27:13.205Z,87.69
2018-01-11T07:28:20.000Z,87.67
2018-01-11T07:29:26.753Z,87.69
2018-01-11T07:30:33.620Z,87.70
2018-01-11T07:31:40.465Z,87.68
2018-01-11T07:32:47.265Z,87.67
2018-01-11T07:33:54.069Z,87.66
2018-01-11T07:35:00.821Z,87.66
2018-01-11T07:36:07.704Z,87.69
2018-01-11T07:37:14.492Z,87.72
2018-01-11T07:38:21.274Z,87.71
2018-01-11T07:39:28.085Z,87.74
2018-01-11T07:40:34.926Z,87.75
2018-01-11T07:41:41.656Z,87.73
2018-01-11T07:42:48.459Z,87.75
2018-01-11T07:43:55.372Z,87.73
2018-01-11T07:45:02.160Z,87.75
2018-01-11T07:46:08.965Z,87.74
2018-01-11T07:47:15.792Z,87.74
2018-01-11T07:48:22.536Z,87.73
2018-01-11T07:49:29.351Z,87.75
2018-01-11T07:50:36.232Z,87.76
2018-01-11T07:51:43.049Z,87.76
2018-01-11T07:52:49.812Z,87.77
2018-01-11T07:53:56.652Z,87.76
2018-01-11T07:55:03.412Z,87.79
2018-01-11T07:56:10.188Z,87.80
2018-01-11T07:57:16.944Z,87.82
2018-01-11T07:58:23.725Z,87.81
2018-01-11T07:59:30.556Z,87.85
2018-01-11T08:00:37.358Z,87.87
2018-01-11T08:01:44.165Z,87.86
2018-01-11T08:02:50.939Z,87.91
2018-01-11T08:03:57.948Z,87.91
2018-01-11T08:05:04.724Z,87.90
2018-01-11T08:06:11.500Z,87.91
2018-01-11T08:07:18.381Z,87.91
2018-01-11T08:08:25.140Z,87.92
2018-01-11T08:09:31.941Z,87.94
2018-01-11T08:10:38.816Z,87.95
2018-01-11T08:11:45.583Z,87.99
2018-01-11T08:12:52.396Z,87.96
2018-01-11T08:13:59.306Z,87.97
2018-01-11T08:15:06.215Z,88.01
2018-01-11T08:16:13.337Z,88.04
2018-01-11T08:17:20.204Z,88.09
2018-01-11T08:18:26.980Z,88.06
2018-01-11T08:19:33.773Z,88.09
2018-01-11T08:20:40.640Z,88.08
2018-01-11T08:21:47.446Z,88.08
2018-01-11T08:22:54.233Z,88.11
2018-01-11T08:24:01.135Z,88.12
2018-01-11T08:25:07.944Z,88.11
2018-01-11T08:26:14.853Z,88.13
2018-01-11T08:27:21.640Z,88.15
2018-01-11T08:28:28.438Z,88.19
2018-01-11T08:29:35.216Z,88.22
2018-01-11T08:30:42.014Z,88.26
2018-01-11T08:31:48.812Z,88.26
2018-01-11T08:32:55.629Z,88.29
2018-01-11T08:34:02.453Z,88.32
2018-01-11T08:35:09.425Z,88.34
2018-01-11T08:36:16.225Z,88.37
2018-01-11T08:37:23.040Z,88.39
2018-01-11T08:38:29.847Z,88.40
2018-01-11T08:39:36.639Z,88.41
2018-01-11T08:40:43.404Z,88.44
2018-01-11T08:41:50.292Z,88.47
2018-01-11T08:42:57.088Z,88.49
2018-01-11T08:44:03.856Z,88.53
2018-01-11T08:45:10.712Z,88.51
2018-01-11T08:46:17.534Z,88.49
2018-01-11T08:47:24.370Z,88.48
2018-01-11T08:48:31.116Z,88.50
2018-01-11T08:49:37.921Z,88.51
2018-01-11T08:50:44.694Z,88.51
2018-01-11T08:51:51.542Z,88.51
2018-01-11T08:52:58.344Z,88.54
2018-01-11T08:54:05.104Z,88.53
2018-01-11T08:55:11.948Z,88.54
2018-01-11T08:56:18.732Z,88.57
2018-01-11T08:57:25.647Z,88.60
2018-01-11T08:58:32.425Z,88.60
2018-01-11T08:59:39.223Z,88.64
2018-01-11T09:00:45.976Z,88.66
2018-01-11T09:01:52.740Z,88.70
2018-01-11T09:02:59.548Z,88.74
2018-01-11T09:04:06.316Z,88.73
2018-01-11T09:05:13.152Z,88.76
2018-01-11T09:06:20.361Z,88.79
2018-01-11T09:07:26.679Z,88.82
2018-01-11T09:08:33.560Z,88.83
2018-01-11T09:09:40.346Z,88.87
2018-01-11T09:10:47.112Z,88.87
2018-01-11T09:11:53.953Z,88.90
2018-01-11T09:13:00.756Z,88.92
2018-01-11T09:14:07.505Z,88.95
2018-01-11T09:15:14.328Z,88.94
2018-01-11T09:16:21.215Z,88.92
2018-01-11T09:17:28.083Z,88.92
2018-01-11T09:18:34.882Z,88.96
2018-01-11T09:19:41.722Z,89.00
2018-01-11T09:20:48.769Z,88.99
2018-01-11T09:21:55.636Z,89.04
2018-01-11T09:23:02.437Z,89.06
2018-01-11T09:24:09.212Z,89.09
2018-01-11T09:25:16.052Z,89.12
2018-01-11T09:26:22.832Z,89.13
2018-01-11T09:27:29.620Z,89.16
2018-01-11T09:28:36.516Z,89.16
2018-01-11T09:29:43.288Z,89.21
2018-01-11T09:30:50.157Z,89.21
2018-01-11T09:31:56.944Z,89.23
2018-01-11T09:33:03.728Z,89.25
2018-01-11T09:34:10.536Z,89.30
2018-01-11T09:35:17.396Z,89.31
2018-01-11T09:36:24.178Z,89.32
2018-01-11T09:37:30.969Z,89.35
2018-01-11T09:38:37.886Z,89.33
2018-01-11T09:39:44.652Z,89.33
2018-01-11T09:40:51.457Z,89.34
2018-01-11T09:41:58.584Z,89.38
2018-01-11T09:43:05.406Z,89.38
2018-01-11T09:44:12.196Z,89.42
2018-01-11T09:45:18.965Z,89.43
2018-01-11T09:46:25.790Z,89.46
2018-01-11T09:47:32.562Z,89.47
2018-01-11T09:48:39.372Z,89.51
2018-01-11T09:49:46.235Z,89.50
2018-01-11T09:50:53.017Z,89.50
2018-01-11T09:51:59.796Z,89.53
2018-01-11T09:53:06.668Z,89.52
2018-01-11T09:54:13.506Z,89.52
2018-01-11T09:55:20.304Z,89.55
2018-01-11T09:56:27.344Z,89.54
2018-01-11T09:57:34.209Z,89.60
2018-01-11T09:58:40.968Z,89.62
2018-01-11T09:59:47.769Z,89.64
2018-01-11T10:00:54.648Z,89.64
2018-01-11T10:02:01.425Z,89.64
2018-01-11T10:03:08.339Z,89.64
2018-01-11T10:04:15.159Z,89.65
2018-01-11T10:05:21.943Z,89.64
2018-01-11T10:06:28.860Z,89.66
2018-01-11T10:07:35.633Z,89.67
2018-01-11T10:08:42.396Z,89.65
2018-01-11T10:09:49.199Z,89.65
2018-01-11T10:10:55.968Z,89.63
2018-01-11T10:12:02.748Z,89.63
2018-01-11T10:13:09.694Z,89.64
2018-01-11T10:14:16.280Z,89.65
2018-01-11T10:15:23.024Z,89.64
2018-01-11T10:16:29.787Z,89.65
2018-01-11T10:17:36.584Z,89.67
2018-01-11T10:18:43.444Z,89.70
2018-01-11T10:19:50.225Z,89.69
2018-01-11T10:20:57.033Z,89.74
2018-01-11T10:22:03.877Z,89.74
2018-01-11T10:23:10.840Z,89.79
2018-01-11T10:24:17.646Z,89.83
2018-01-11T10:25:24.472Z,89.86
2018-01-11T10:26:31.258Z,89.86
2018-01-11T10:27:38.056Z,89.89
2018-01-11T10:28:45.148Z,89.89
2018-01-11T10:29:51.936Z,89.91
2018-01-11T10:30:58.713Z,89.96
2018-01-11T10:32:05.448Z,89.97
2018-01-11T10:33:12.257Z,89.98
2018-01-11T10:34:19.016Z,90.03
2018-01-11T10:35:25.764Z,90.00
2018-01-11T10:36:32.577Z,90.04
2018-01-11T10:37:39.325Z,90.05
2018-01-11T10:38:46.060Z,90.04
2018-01-11T10:39:52.836Z,90.00
2018-01-11T10:40:59.567Z,90.00
2018-01-11T10:42:06.429Z,90.03
2018-01-11T10:43:13.211Z,90.00
2018-01-11T10:44:19.960Z,89.99
2018-01-11T10:45:26.733Z,89.99
2018-01-11T10:46:33.524Z,89.99
2018-01-11T10:47:40.295Z,89.97
2018-01-11T10:48:47.094Z,89.97
2018-01-11T10:49:53.916Z,89.96
2018-01-11T10:51:00.693Z,89.97
2018-01-11T10:52:07.492Z,89.97
2018-01-11T10:53:14.324Z,89.97
2018-01-11T10:54:21.064Z,89.96
2018-01-11T10:55:27.832Z,89.90
2018-01-11T10:56:34.588Z,89.89
2018-01-11T10:57:41.418Z,89.92
2018-01-11T10:58:48.165Z,89.91
2018-01-11T10:59:54.912Z,89.89
2018-01-11T11:01:01.939Z,89.87
2018-01-11T11:02:08.820Z,89.88
2018-01-11T11:03:19.876Z,89.91
2018-01-11T11:04:26.617Z,89.91
2018-01-11T11:05:33.400Z,89.98
2018-01-11T11:06:40.124Z,90.08
2018-01-11T11:07:46.896Z,90.13
2018-01-11T11:08:53.640Z,90.16
2018-01-11T11:10:00.477Z,90.14
2018-01-11T11:11:07.356Z,90.10
2018-01-11T11:12:14.117Z,90.04
2018-01-11T11:13:20.900Z,90.01
2018-01-11T11:14:27.667Z,89.97
2018-01-11T11:15:34.444Z,89.94
2018-01-11T11:16:41.294Z,89.92
2018-01-11T11:17:48.068Z,89.92
2018-01-11T11:18:55.132Z,89.94
2018-01-11T11:20:01.927Z,89.93
2018-01-11T11:21:08.668Z,89.92
2018-01-11T11:22:15.472Z,89.93
2018-01-11T11:23:22.249Z,89.95
2018-01-11T11:24:29.018Z,89.97
2018-01-11T11:25:35.876Z,89.98
2018-01-11T11:26:42.662Z,90.01
2018-01-11T11:27:49.429Z,90.02
2018-01-11T11:28:56.185Z,90.04
2018-01-11T11:30:02.959Z,90.04
2018-01-11T11:31:09.692Z,90.00
2018-01-11T11:32:16.465Z,89.97
2018-01-11T11:33:23.207Z,89.93
2018-01-11T11:34:30.041Z,89.92
2018-01-11T11:35:36.819Z,89.91
2018-01-11T11:36:43.576Z,89.89
2018-01-11T11:37:50.312Z,89.87
2018-01-11T11:38:57.112Z,89.82
2018-01-11T11:40:03.894Z,89.78
2018-01-11T11:41:10.661Z,89.76
2018-01-11T11:42:17.519Z,89.76
2018-01-11T11:43:24.533Z,89.79
2018-01-11T11:44:31.352Z,89.80
2018-01-11T11:45:38.096Z,89.83
2018-01-11T11:46:44.876Z,89.83
2018-01-11T11:47:51.651Z,89.85
2018-01-11T11:48:58.402Z,89.88
2018-01-11T11:50:05.186Z,89.89
2018-01-11T11:51:12.006Z,89.86
2018-01-11T11:52:18.839Z,89.86
2018-01-11T11:53:25.571Z,89.91
2018-01-11T11:54:32.437Z,89.90
2018-01-11T11:55:39.156Z,89.89
2018-01-11T11:56:45.928Z,89.87
2018-01-11T11:57:52.688Z,89.85
2018-01-11T11:58:59.465Z,89.83
2018-01-11T12:00:06.223Z,89.85
2018-01-11T12:01:13.000Z,89.86
2018-01-11T12:02:19.757Z,89.87
2018-01-11T12:03:26.523Z,89.91
2018-01-11T12:04:33.282Z,89.92
2018-01-11T12:05:40.104Z,89.91
2018-01-11T12:06:46.885Z,89.92
2018-01-11T12:07:53.627Z,89.92
2018-01-11T12:09:00.349Z,89.90
2018-01-11T12:10:07.280Z,89.85
2018-01-11T12:11:14.010Z,89.87
2018-01-11T12:12:20.746Z,89.87
2018-01-11T12:13:27.601Z,89.86
2018-01-11T12:14:34.335Z,89.92
2018-01-11T12:15:41.105Z,89.94
2018-01-11T12:16:47.836Z,89.93
2018-01-11T12:17:54.632Z,89.88
2018-01-11T12:19:01.374Z,89.84
2018-01-11T12:20:08.128Z,89.74
2018-01-11T12:21:14.885Z,89.69
2018-01-11T12:22:21.976Z,89.67
2018-01-11T12:23:28.867Z,89.60
2018-01-11T12:24:35.596Z,89.56
2018-01-11T12:25:42.370Z,89.55
2018-01-11T12:26:49.140Z,89.58
2018-01-11T12:27:55.964Z,89.58
2018-01-11T12:29:02.716Z,89.58
2018-01-11T12:30:09.456Z,89.56
2018-01-11T12:31:16.221Z,89.61
2018-01-11T12:32:23.056Z,89.60
2018-01-11T12:33:29.780Z,89.51
2018-01-11T12:34:36.516Z,89.45
2018-01-11T12:35:43.224Z,89.42
2018-01-11T12:36:49.988Z,89.43
2018-01-11T12:37:56.737Z,89.45
2018-01-11T12:39:03.467Z,89.44
2018-01-11T12:40:10.244Z,89.38
2018-01-11T12:41:16.980Z,89.34
2018-01-11T12:42:23.809Z,89.29
2018-01-11T12:43:30.536Z,89.25
2018-01-11T12:44:37.268Z,89.19
2018-01-11T12:45:44.000Z,89.03
2018-01-11T12:46:50.748Z,88.96
2018-01-11T12:47:57.545Z,88.85
2018-01-11T12:49:04.389Z,88.79
2018-01-11T12:50:11.148Z,88.81
2018-01-11T12:51:17.990Z,88.76
2018-01-11T12:52:24.846Z,88.64
2018-01-11T12:53:31.584Z,88.54
2018-01-11T12:54:38.420Z,88.56
2018-01-11T12:55:45.189Z,88.62
2018-01-11T12:56:52.045Z,88.43
2018-01-11T12:57:59.707Z,88.37
2018-01-11T12:59:06.117Z,88.37
2018-01-11T13:00:12.968Z,88.26
2018-01-11T13:01:19.966Z,88.12
2018-01-11T13:02:26.789Z,88.16
2018-01-11T13:03:33.613Z,88.07
2018-01-11T13:04:40.749Z,87.99
2018-01-11T13:05:47.533Z,87.93
2018-01-11T13:06:54.292Z,87.82
2018-01-11T13:08:01.467Z,87.73
2018-01-11T13:09:07.817Z,87.68
2018-01-11T13:10:14.953Z,87.68
2018-01-11T13:11:21.725Z,87.72
2018-01-11T13:12:28.504Z,87.69
2018-01-11T13:13:35.255Z,87.61
2018-01-11T13:14:42.017Z,87.55
2018-01-11T13:15:48.769Z,87.54
2018-01-11T13:16:55.507Z,87.58
2018-01-11T13:18:02.298Z,87.53
2018-01-11T13:19:09.104Z,87.47
2018-01-11T13:20:15.832Z,87.49
2018-01-11T13:21:22.629Z,87.42
2018-01-11T13:22:29.380Z,87.40
2018-01-11T13:23:36.196Z,87.35
2018-01-11T13:24:42.905Z,87.34
2018-01-11T13:25:49.646Z,87.34
2018-01-11T13:26:56.381Z,87.31
2018-01-11T13:28:03.148Z,87.32
2018-01-11T13:29:10.016Z,87.30
2018-01-11T13:30:16.772Z,87.31
2018-01-11T13:31:23.531Z,87.24
2018-01-11T13:32:30.386Z,87.17
2018-01-11T13:33:37.183Z,87.12
2018-01-11T13:34:43.929Z,87.11
2018-01-11T13:35:51.057Z,87.13
2018-01-11T13:36:57.811Z,87.12
2018-01-11T13:38:04.613Z,87.08
2018-01-11T13:39:11.334Z,87.05
2018-01-11T13:40:18.141Z,87.05
2018-01-11T13:41:24.866Z,87.03
2018-01-11T13:42:31.980Z,87.04
2018-01-11T13:43:38.708Z,87.01
2018-01-11T13:44:45.469Z,87.00
2018-01-11T13:45:52.237Z,87.02
2018-01-11T13:46:59.004Z,86.95
2018-01-11T13:48:05.768Z,86.90
2018-01-11T13:49:12.636Z,86.86
2018-01-11T13:50:19.409Z,86.85
2018-01-11T13:51:26.180Z,86.85
2018-01-11T13:52:33.001Z,86.79
2018-01-11T13:53:39.787Z,86.77
2018-01-11T13:54:46.556Z,86.77
2018-01-11T13:55:53.308Z,86.78
2018-01-11T13:57:00.096Z,86.79
2018-01-11T13:58:06.896Z,86.80
2018-01-11T13:59:13.684Z,86.77
2018-01-11T14:00:20.544Z,86.71
2018-01-11T14:01:27.361Z,86.69
2018-01-11T14:02:34.181Z,86.68
2018-01-11T14:03:40.996Z,86.66
2018-01-11T14:04:47.841Z,86.60
2018-01-11T14:05:54.743Z,86.61
2018-01-11T14:07:01.533Z,86.57
2018-01-11T14:08:08.348Z,86.53
2018-01-11T14:09:15.164Z,86.50
2018-01-11T14:10:21.997Z,86.49
2018-01-11T14:11:28.799Z,86.43
2018-01-11T14:12:35.680Z,86.40
2018-01-11T14:13:42.504Z,86.39
2018-01-11T14:14:49.380Z,86.38
2018-01-11T14:15:56.192Z,86.42
2018-01-11T14:17:03.036Z,86.39
2018-01-11T14:18:09.857Z,86.34
2018-01-11T14:19:16.657Z,86.27
2018-01-11T14:20:23.608Z,86.23